createdAt,value
2022-08-27T00:00:32.031Z,1.92
2022-08-27T00:02:59.264Z,1.50
2022-08-27T00:05:25.872Z,1.85
2022-08-27T00:07:52.445Z,1.67
2022-08-27T00:10:23.069Z,1.67
2022-08-27T00:12:49.655Z,1.50
2022-08-27T00:15:17.854Z,1.75
2022-08-27T00:17:45.932Z,1.58
2022-08-27T00:20:15.806Z,1.55
2022-08-27T00:22:42.401Z,1.55
2022-08-27T00:25:10.359Z,1.52
2022-08-27T00:27:37.836Z,1.42
2022-08-27T00:30:07.039Z,1.20
2022-08-27T00:32:33.587Z,1.63
2022-08-27T00:35:00.146Z,1.02
2022-08-27T00:37:26.754Z,1.30
2022-08-27T00:39:53.730Z,1.02
2022-08-27T00:42:20.321Z,1.30
2022-08-27T00:44:47.179Z,1.35
2022-08-27T00:47:18.487Z,1.20
2022-08-27T00:49:54.644Z,1.60
2022-08-27T00:52:33.428Z,1.05
2022-08-27T00:55:10.173Z,1.10
2022-08-27T00:57:39.159Z,1.23
2022-08-27T01:00:08.973Z,1.35
2022-08-27T01:02:35.771Z,1.00
2022-08-27T01:05:09.032Z,1.10
2022-08-27T01:07:39.319Z,1.10
2022-08-27T01:10:20.034Z,1.17
2022-08-27T01:12:53.344Z,1.10
2022-08-27T01:15:22.731Z,1.00
2022-08-27T01:17:50.118Z,0.98
2022-08-27T01:20:21.036Z,1.20
2022-08-27T01:23:04.494Z,1.17
2022-08-27T01:25:31.542Z,1.20
2022-08-27T01:28:00.729Z,0.90
2022-08-27T01:30:27.465Z,1.20
2022-08-27T01:32:54.822Z,1.30
2022-08-27T01:35:23.350Z,1.08
2022-08-27T01:37:53.717Z,1.05
2022-08-27T01:40:24.544Z,1.23
2022-08-27T01:42:55.512Z,0.90
2022-08-27T01:45:32.749Z,1.15
2022-08-27T01:48:00.385Z,1.10
2022-08-27T01:50:31.947Z,1.27
2022-08-27T01:53:04.302Z,0.90
2022-08-27T01:55:30.951Z,1.00
2022-08-27T01:57:57.520Z,0.80
2022-08-27T02:00:34.932Z,1.10
2022-08-27T02:03:01.566Z,1.10
2022-08-27T02:05:29.053Z,0.98
2022-08-27T02:07:56.257Z,0.95
2022-08-27T02:10:27.546Z,0.95
2022-08-27T02:12:54.329Z,1.00
2022-08-27T02:15:21.838Z,1.17
2022-08-27T02:17:48.546Z,1.15
2022-08-27T02:20:15.809Z,1.00
2022-08-27T02:22:42.608Z,1.08
2022-08-27T02:25:12.246Z,1.10
2022-08-27T02:27:38.987Z,1.17
2022-08-27T02:30:06.233Z,1.10
2022-08-27T02:32:33.027Z,1.00
2022-08-27T02:35:00.501Z,1.10
2022-08-27T02:37:28.289Z,1.20
2022-08-27T02:39:54.905Z,1.38
2022-08-27T02:42:21.689Z,1.00
2022-08-27T02:44:48.589Z,1.00
2022-08-27T02:47:16.815Z,1.33
2022-08-27T02:49:44.471Z,1.20
2022-08-27T02:52:11.145Z,1.10
2022-08-27T02:54:37.679Z,0.90
2022-08-27T02:57:05.558Z,0.95
2022-08-27T02:59:32.090Z,1.05
2022-08-27T03:01:58.722Z,1.10
2022-08-27T03:04:25.421Z,1.20
2022-08-27T03:06:52.009Z,1.02
2022-08-27T03:09:18.548Z,1.00
2022-08-27T03:11:45.147Z,1.10
2022-08-27T03:14:12.818Z,1.40
2022-08-27T03:16:40.113Z,1.20
2022-08-27T03:19:07.465Z,1.30
2022-08-27T03:21:35.474Z,1.05
2022-08-27T03:24:11.264Z,1.08
2022-08-27T03:26:39.395Z,1.15
2022-08-27T03:29:07.829Z,1.00
2022-08-27T03:31:34.406Z,1.10
2022-08-27T03:34:04.423Z,1.25
2022-08-27T03:36:31.695Z,1.02
2022-08-27T03:38:58.550Z,1.00
2022-08-27T03:41:43.831Z,1.10
2022-08-27T03:44:16.741Z,1.13
2022-08-27T03:46:48.759Z,1.10
2022-08-27T03:49:15.374Z,1.42
2022-08-27T03:51:47.370Z,1.30
2022-08-27T03:54:13.936Z,1.27
2022-08-27T03:56:41.628Z,1.23
2022-08-27T03:59:08.344Z,1.30
2022-08-27T04:01:35.104Z,1.20
2022-08-27T04:04:01.901Z,1.15
2022-08-27T04:06:28.518Z,1.17
2022-08-27T04:08:55.107Z,1.27
2022-08-27T04:11:22.162Z,1.10
2022-08-27T04:13:48.849Z,1.10
2022-08-27T04:16:15.577Z,1.25
2022-08-27T04:18:42.281Z,1.33
2022-08-27T04:21:11.407Z,1.10
2022-08-27T04:23:39.823Z,1.30
2022-08-27T04:26:08.357Z,1.05
2022-08-27T04:28:38.655Z,1.42
2022-08-27T04:31:06.325Z,0.98
2022-08-27T04:33:35.993Z,1.20
2022-08-27T04:36:06.099Z,1.10
2022-08-27T04:38:33.609Z,1.40
2022-08-27T04:41:19.970Z,1.45
2022-08-27T04:43:58.024Z,1.45
2022-08-27T04:46:30.551Z,1.45
2022-08-27T04:48:59.479Z,1.20
2022-08-27T04:51:26.933Z,1.45
2022-08-27T04:53:53.860Z,1.33
2022-08-27T04:56:23.797Z,1.00
2022-08-27T04:58:53.514Z,1.10
2022-08-27T05:01:26.303Z,1.00
2022-08-27T05:03:54.414Z,1.10
2022-08-27T05:06:22.020Z,1.13
2022-08-27T05:08:50.412Z,1.40
2022-08-27T05:11:19.165Z,1.25
2022-08-27T05:13:46.374Z,1.05
2022-08-27T05:16:16.181Z,1.10
2022-08-27T05:18:48.178Z,1.17
2022-08-27T05:21:21.087Z,1.45
2022-08-27T05:23:48.342Z,1.48
2022-08-27T05:26:15.913Z,1.10
2022-08-27T05:28:42.938Z,1.17
2022-08-27T05:31:11.766Z,1.75
2022-08-27T05:33:39.960Z,1.52
2022-08-27T05:36:07.750Z,0.90
2022-08-27T05:38:35.013Z,1.08
2022-08-27T05:41:11.594Z,1.35
2022-08-27T05:43:40.235Z,1.13
2022-08-27T05:46:10.032Z,1.45
2022-08-27T05:48:37.560Z,1.15
2022-08-27T05:51:08.429Z,1.38
2022-08-27T05:53:35.912Z,1.58
2022-08-27T05:56:02.654Z,1.48
2022-08-27T05:58:48.630Z,1.40
2022-08-27T06:01:20.785Z,1.27
2022-08-27T06:03:47.428Z,1.20
2022-08-27T06:06:14.513Z,1.25
2022-08-27T06:08:41.139Z,1.45
2022-08-27T06:11:08.112Z,1.55
2022-08-27T06:13:35.983Z,1.67
2022-08-27T06:16:09.286Z,1.60
2022-08-27T06:18:41.174Z,1.70
2022-08-27T06:21:08.153Z,1.23
2022-08-27T06:23:35.112Z,1.73
2022-08-27T06:26:05.381Z,1.38
2022-08-27T06:28:34.000Z,1.40
2022-08-27T06:31:17.720Z,1.50
2022-08-27T06:33:46.249Z,1.30
2022-08-27T06:36:16.294Z,1.80
2022-08-27T06:38:43.282Z,1.35
2022-08-27T06:41:23.272Z,1.48
2022-08-27T06:43:51.076Z,1.48
2022-08-27T06:46:20.351Z,1.20
2022-08-27T06:48:49.938Z,1.42
2022-08-27T06:51:24.480Z,1.20
2022-08-27T06:53:52.393Z,1.38
2022-08-27T06:56:20.032Z,1.48
2022-08-27T06:58:47.161Z,1.50
2022-08-27T07:01:16.102Z,1.50
2022-08-27T07:03:43.726Z,1.15
2022-08-27T07:06:13.334Z,1.50
2022-08-27T07:08:41.169Z,1.80
2022-08-27T07:11:09.850Z,1.30
2022-08-27T07:13:37.310Z,1.23
2022-08-27T07:16:06.395Z,1.73
2022-08-27T07:18:34.518Z,1.60
2022-08-27T07:21:01.153Z,1.90
2022-08-27T07:23:28.597Z,1.15
2022-08-27T07:25:55.145Z,1.80
2022-08-27T07:28:21.708Z,1.45
2022-08-27T07:30:48.361Z,1.60
2022-08-27T07:33:15.116Z,1.60
2022-08-27T07:35:41.861Z,1.60
2022-08-27T07:38:14.262Z,1.52
2022-08-27T07:40:43.215Z,2.15
2022-08-27T07:43:45.819Z,1.80
2022-08-27T07:46:12.478Z,1.50
2022-08-27T07:48:39.116Z,1.55
2022-08-27T07:51:13.072Z,1.55
2022-08-27T07:53:39.811Z,1.80
2022-08-27T07:56:08.554Z,1.40
2022-08-27T07:58:35.564Z,1.70
2022-08-27T08:01:02.851Z,1.30
2022-08-27T08:03:31.078Z,1.48
2022-08-27T08:06:02.382Z,1.60
2022-08-27T08:08:36.092Z,1.52
2022-08-27T08:11:06.449Z,1.30
2022-08-27T08:13:36.275Z,1.65
2022-08-27T08:16:04.942Z,1.60
2022-08-27T08:18:31.559Z,1.45
2022-08-27T08:21:03.388Z,1.63
2022-08-27T08:23:29.998Z,1.40
2022-08-27T08:25:57.756Z,1.52
2022-08-27T08:28:24.777Z,1.50
2022-08-27T08:30:52.638Z,1.42
2022-08-27T08:33:19.308Z,1.83
2022-08-27T08:35:45.892Z,1.58
2022-08-27T08:38:12.475Z,1.70
2022-08-27T08:40:42.645Z,1.98
2022-08-27T08:43:41.690Z,1.90
2022-08-27T08:46:17.342Z,2.60
2022-08-27T08:48:49.446Z,1.60
2022-08-27T08:51:40.697Z,1.65
2022-08-27T08:54:14.097Z,1.50
2022-08-27T08:56:54.939Z,1.65
2022-08-27T08:59:28.471Z,1.00
2022-08-27T09:01:55.135Z,1.88
2022-08-27T09:04:25.740Z,1.20
2022-08-27T09:06:52.410Z,1.30
2022-08-27T09:09:23.981Z,1.23
2022-08-27T09:11:56.154Z,1.60
2022-08-27T09:14:35.262Z,1.40
2022-08-27T09:17:07.171Z,1.40
2022-08-27T09:19:38.008Z,1.77
2022-08-27T09:22:32.682Z,1.42
2022-08-27T09:25:20.363Z,1.08
2022-08-27T09:27:51.814Z,1.65
2022-08-27T09:30:30.511Z,1.40
2022-08-27T09:33:01.729Z,1.60
2022-08-27T09:35:39.119Z,3.25
2022-08-27T09:38:05.749Z,3.03
2022-08-27T09:40:40.107Z,3.38
2022-08-27T09:43:21.834Z,3.50
2022-08-27T09:45:51.688Z,2.20
2022-08-27T09:48:21.447Z,1.70
2022-08-27T09:50:55.091Z,1.77
2022-08-27T09:53:27.285Z,1.90
2022-08-27T09:56:03.385Z,1.90
2022-08-27T09:58:47.429Z,1.33
2022-08-27T10:01:26.774Z,1.30
2022-08-27T10:04:06.548Z,1.33
2022-08-27T10:06:33.388Z,1.25
2022-08-27T10:09:07.332Z,1.48
2022-08-27T10:11:41.015Z,1.10
2022-08-27T10:14:21.585Z,1.00
2022-08-27T10:17:00.335Z,1.30
2022-08-27T10:19:36.056Z,1.40
2022-08-27T10:22:17.983Z,1.20
2022-08-27T10:25:06.733Z,1.20
2022-08-27T10:28:02.437Z,0.90
2022-08-27T10:30:38.037Z,1.25
2022-08-27T10:33:04.799Z,1.20
2022-08-27T10:36:06.068Z,1.23
2022-08-27T10:38:50.196Z,1.20
2022-08-27T10:41:20.018Z,1.65
2022-08-27T10:44:39.464Z,1.10
2022-08-27T10:47:49.442Z,1.05
2022-08-27T10:51:12.588Z,1.30
2022-08-27T10:54:22.774Z,1.37
2022-08-27T10:57:26.305Z,1.40
2022-08-27T11:00:12.170Z,1.10
2022-08-27T11:02:44.652Z,1.13
2022-08-27T11:05:45.112Z,1.40
2022-08-27T11:08:17.229Z,1.30
2022-08-27T11:10:49.368Z,1.45
2022-08-27T11:13:25.030Z,0.93
2022-08-27T11:15:54.760Z,1.30
2022-08-27T11:18:40.277Z,1.15
2022-08-27T11:21:07.904Z,1.45
2022-08-27T11:23:45.501Z,1.38
2022-08-27T11:26:12.819Z,1.27
2022-08-27T11:28:48.018Z,1.40
2022-08-27T11:31:49.197Z,1.10
2022-08-27T11:34:42.518Z,1.20
2022-08-27T11:37:37.960Z,1.27
2022-08-27T11:40:07.874Z,1.40
2022-08-27T11:42:48.441Z,1.30
2022-08-27T11:45:24.586Z,1.38
2022-08-27T11:47:59.698Z,1.17
2022-08-27T11:50:28.826Z,1.42
2022-08-27T11:53:02.198Z,1.17
2022-08-27T11:55:32.648Z,1.27
2022-08-27T11:58:07.843Z,1.65
2022-08-27T12:00:38.472Z,1.15
2022-08-27T12:03:22.538Z,1.33
2022-08-27T12:06:08.064Z,1.00
2022-08-27T12:08:36.106Z,1.27
2022-08-27T12:11:40.206Z,1.40
2022-08-27T12:14:40.030Z,1.13
2022-08-27T12:17:35.633Z,1.40
2022-08-27T12:20:40.626Z,1.45
2022-08-27T12:23:44.025Z,1.15
2022-08-27T12:28:43.693Z,1.10
2022-08-27T12:31:10.799Z,1.38
2022-08-27T12:33:45.484Z,1.00
2022-08-27T12:36:27.995Z,1.42
2022-08-27T12:38:58.432Z,1.02
2022-08-27T12:41:44.679Z,1.30
2022-08-27T12:44:26.923Z,1.30
2022-08-27T12:47:05.375Z,1.48
2022-08-27T12:49:41.590Z,1.23
2022-08-27T12:52:36.511Z,1.85
2022-08-27T12:55:25.379Z,1.65
2022-08-27T12:57:57.187Z,1.50
2022-08-27T13:00:26.502Z,1.40
2022-08-27T13:02:59.167Z,1.55
2022-08-27T13:05:41.192Z,1.55
2022-08-27T13:08:29.918Z,1.15
2022-08-27T13:11:07.037Z,1.38
2022-08-27T13:13:33.605Z,1.00
2022-08-27T13:16:04.419Z,1.25
2022-08-27T13:18:31.262Z,1.17
2022-08-27T13:21:13.352Z,2.20
2022-08-27T13:23:45.793Z,1.30
2022-08-27T13:26:12.713Z,1.42
2022-08-27T13:28:43.041Z,1.73
2022-08-27T13:31:11.256Z,1.67
2022-08-27T13:33:40.448Z,1.40
2022-08-27T13:36:09.330Z,1.42
2022-08-27T13:38:49.783Z,1.30
2022-08-27T13:41:36.375Z,1.10
2022-08-27T13:44:12.609Z,1.75
2022-08-27T13:46:49.786Z,1.50
2022-08-27T13:49:22.003Z,1.42
2022-08-27T13:51:49.751Z,1.13
2022-08-27T13:54:18.851Z,1.48
2022-08-27T13:56:49.101Z,1.50
2022-08-27T13:59:19.364Z,1.10
2022-08-27T14:01:55.619Z,1.63
2022-08-27T14:04:26.740Z,1.20
2022-08-27T14:06:54.601Z,1.23
2022-08-27T14:09:27.210Z,1.17
2022-08-27T14:12:02.005Z,1.27
2022-08-27T14:14:30.635Z,1.15
2022-08-27T14:16:59.954Z,1.60
2022-08-27T14:19:33.223Z,1.50
2022-08-27T14:22:03.408Z,1.38
2022-08-27T14:24:30.014Z,1.38
2022-08-27T14:27:05.650Z,1.45
2022-08-27T14:29:32.251Z,1.05
2022-08-27T14:31:58.803Z,1.40
2022-08-27T14:34:25.362Z,1.50
2022-08-27T14:36:55.040Z,1.40
2022-08-27T14:39:26.559Z,1.45
2022-08-27T14:41:53.972Z,0.85
2022-08-27T14:44:21.862Z,1.42
2022-08-27T14:46:49.080Z,1.60
2022-08-27T14:49:25.930Z,1.45
2022-08-27T14:51:52.702Z,1.58
2022-08-27T14:54:19.277Z,1.80
2022-08-27T14:56:46.287Z,1.25
2022-08-27T14:59:12.816Z,1.20
2022-08-27T15:01:39.537Z,1.25
2022-08-27T15:04:06.896Z,1.25
2022-08-27T15:06:33.670Z,1.23
2022-08-27T15:09:01.690Z,1.20
2022-08-27T15:11:31.256Z,1.60
2022-08-27T15:14:00.341Z,1.25
2022-08-27T15:16:35.949Z,1.38
2022-08-27T15:19:03.104Z,1.40
2022-08-27T15:21:31.124Z,1.10
2022-08-27T15:24:13.063Z,1.58
2022-08-27T15:26:39.676Z,1.13
2022-08-27T15:29:06.867Z,1.35
2022-08-27T15:31:33.970Z,1.40
2022-08-27T15:34:00.805Z,1.20
2022-08-27T15:36:27.442Z,1.30
2022-08-27T15:38:55.198Z,1.27
2022-08-27T15:41:25.183Z,1.10
2022-08-27T15:43:55.296Z,0.80
2022-08-27T15:46:22.907Z,1.15
2022-08-27T15:48:49.523Z,1.55
2022-08-27T15:51:17.679Z,1.17
2022-08-27T15:53:44.416Z,0.90
2022-08-27T15:56:11.032Z,1.30
2022-08-27T15:58:45.270Z,1.15
2022-08-27T16:01:15.035Z,1.70
2022-08-27T16:03:43.857Z,1.42
2022-08-27T16:06:10.468Z,1.10
2022-08-27T16:08:41.707Z,1.35
2022-08-27T16:11:09.369Z,1.30
2022-08-27T16:13:36.753Z,1.60
2022-08-27T16:16:03.975Z,1.48
2022-08-27T16:18:33.166Z,1.13
2022-08-27T16:21:02.108Z,1.10
2022-08-27T16:23:30.606Z,1.05
2022-08-27T16:25:57.702Z,1.00
2022-08-27T16:28:25.029Z,1.38
2022-08-27T16:30:54.576Z,1.50
2022-08-27T16:33:22.942Z,1.55
2022-08-27T16:35:50.381Z,1.55
2022-08-27T16:38:17.184Z,1.23
2022-08-27T16:40:55.140Z,1.38
2022-08-27T16:43:24.653Z,1.00
2022-08-27T16:45:53.375Z,1.08
2022-08-27T16:48:39.446Z,2.35
2022-08-27T16:51:09.098Z,1.63
2022-08-27T16:53:39.854Z,1.20
2022-08-27T16:56:06.902Z,1.23
2022-08-27T16:58:33.770Z,1.30
2022-08-27T17:01:07.291Z,1.50
2022-08-27T17:04:07.013Z,1.30
2022-08-27T17:06:29.222Z,1.17
2022-08-27T17:08:56.259Z,1.35
2022-08-27T17:11:28.706Z,1.38
2022-08-27T17:13:58.684Z,1.27
2022-08-27T17:16:29.630Z,1.20
2022-08-27T17:18:58.414Z,1.35
2022-08-27T17:21:29.720Z,1.38
2022-08-27T17:23:59.407Z,1.25
2022-08-27T17:26:26.283Z,1.38
2022-08-27T17:28:53.636Z,1.35
2022-08-27T17:31:28.436Z,1.35
2022-08-27T17:33:59.135Z,1.23
2022-08-27T17:36:27.158Z,0.95
2022-08-27T17:38:54.862Z,1.00
2022-08-27T17:41:33.917Z,1.55
2022-08-27T17:44:05.655Z,1.10
2022-08-27T17:46:32.509Z,1.20
2022-08-27T17:48:59.757Z,1.50
2022-08-27T17:51:27.559Z,1.10
2022-08-27T17:54:00.558Z,1.08
2022-08-27T17:56:28.394Z,1.27
2022-08-27T17:58:55.302Z,1.48
2022-08-27T18:01:28.747Z,1.50
2022-08-27T18:03:56.729Z,0.90
2022-08-27T18:06:24.002Z,1.20
2022-08-27T18:08:50.609Z,1.00
2022-08-27T18:11:17.648Z,1.00
2022-08-27T18:13:48.112Z,1.20
2022-08-27T18:16:14.725Z,1.45
2022-08-27T18:18:41.850Z,0.98
2022-08-27T18:21:08.525Z,1.40
2022-08-27T18:23:36.978Z,1.20
2022-08-27T18:26:06.619Z,1.20
2022-08-27T18:28:34.195Z,1.00
2022-08-27T18:31:03.724Z,1.45
2022-08-27T18:33:33.666Z,1.08
2022-08-27T18:36:00.422Z,1.20
2022-08-27T18:38:27.046Z,1.00
2022-08-27T18:40:54.643Z,1.17
2022-08-27T18:43:29.654Z,1.15
2022-08-27T18:45:56.455Z,1.20
2022-08-27T18:48:23.865Z,1.10
2022-08-27T18:50:55.595Z,1.08
2022-08-27T18:53:22.215Z,1.20
2022-08-27T18:55:50.579Z,1.20
2022-08-27T18:58:18.065Z,1.35
2022-08-27T19:00:48.946Z,1.13
2022-08-27T19:03:21.966Z,1.95
2022-08-27T19:08:22.891Z,0.95
2022-08-27T19:10:49.663Z,1.10
2022-08-27T19:13:16.474Z,1.17
2022-08-27T19:16:05.862Z,1.40
2022-08-27T19:18:35.512Z,1.38
2022-08-27T19:21:02.434Z,1.30
2022-08-27T19:23:29.198Z,1.10
2022-08-27T19:25:57.802Z,1.38
2022-08-27T19:28:37.746Z,1.10
2022-08-27T19:31:04.984Z,1.20
2022-08-27T19:33:31.667Z,1.50
2022-08-27T19:35:58.667Z,1.63
2022-08-27T19:38:28.526Z,1.20
2022-08-27T19:40:55.606Z,1.60
2022-08-27T19:43:22.204Z,1.33
2022-08-27T19:45:48.934Z,1.60
2022-08-27T19:48:16.680Z,1.73
2022-08-27T19:50:44.608Z,1.75
2022-08-27T19:53:11.278Z,2.10
2022-08-27T19:55:45.251Z,2.25
2022-08-27T19:58:14.097Z,1.88
2022-08-27T20:00:41.983Z,1.95
2022-08-27T20:03:08.634Z,2.42
2022-08-27T20:05:35.697Z,2.33
2022-08-27T20:08:03.561Z,2.33
2022-08-27T20:10:31.863Z,2.22
2022-08-27T20:13:03.017Z,2.72
2022-08-27T20:15:29.969Z,3.03
2022-08-27T20:17:59.362Z,2.60
2022-08-27T20:20:28.256Z,2.60
2022-08-27T20:22:55.917Z,2.22
2022-08-27T20:25:23.939Z,3.00
2022-08-27T20:27:51.090Z,3.03
2022-08-27T20:30:22.836Z,2.80
2022-08-27T20:32:49.657Z,2.80
2022-08-27T20:35:17.711Z,2.83
2022-08-27T20:37:44.568Z,3.28
2022-08-27T20:40:15.752Z,2.53
2022-08-27T20:42:42.685Z,3.55
2022-08-27T20:45:12.127Z,4.25
2022-08-27T20:47:40.107Z,3.28
2022-08-27T20:50:07.580Z,3.65
2022-08-27T20:52:35.693Z,3.22
2022-08-27T20:55:03.171Z,3.25
2022-08-27T20:57:29.789Z,3.20
2022-08-27T21:00:15.010Z,2.80
2022-08-27T21:02:41.676Z,3.22
2022-08-27T21:05:11.852Z,3.40
2022-08-27T21:07:38.915Z,3.38
2022-08-27T21:10:06.732Z,3.10
2022-08-27T21:12:33.598Z,3.42
2022-08-27T21:15:01.551Z,3.42
2022-08-27T21:17:29.459Z,3.13
2022-08-27T21:19:56.557Z,3.17
2022-08-27T21:22:24.886Z,3.20
2022-08-27T21:24:52.529Z,3.13
2022-08-27T21:27:24.248Z,3.00
2022-08-27T21:29:51.118Z,3.65
2022-08-27T21:32:18.433Z,3.20
2022-08-27T21:34:45.381Z,3.90
2022-08-27T21:37:13.779Z,2.92
2022-08-27T21:39:42.102Z,3.97
2022-08-27T21:42:10.068Z,3.40
2022-08-27T21:44:37.418Z,3.47
2022-08-27T21:47:04.512Z,3.22
2022-08-27T21:49:32.628Z,3.47
2022-08-27T21:52:00.823Z,3.45
2022-08-27T21:54:27.950Z,3.42
2022-08-27T21:56:54.859Z,3.58
2022-08-27T21:59:21.960Z,3.28
2022-08-27T22:01:55.830Z,3.42
2022-08-27T22:04:27.484Z,3.53
2022-08-27T22:06:57.784Z,3.53
2022-08-27T22:09:24.400Z,3.80
2022-08-27T22:11:51.236Z,3.45
2022-08-27T22:14:17.871Z,3.75
2022-08-27T22:16:44.476Z,3.92
2022-08-27T22:19:11.124Z,3.35
2022-08-27T22:21:37.851Z,3.63
2022-08-27T22:24:05.961Z,3.35
2022-08-27T22:26:32.581Z,3.88
2022-08-27T22:28:59.525Z,3.55
2022-08-27T22:31:26.352Z,4.03
2022-08-27T22:33:53.581Z,3.33
2022-08-27T22:36:20.357Z,4.00
2022-08-27T22:38:47.727Z,3.20
2022-08-27T22:41:14.766Z,3.40
2022-08-27T22:43:45.542Z,3.75
2022-08-27T22:46:12.266Z,3.35
2022-08-27T22:48:39.180Z,3.78
2022-08-27T22:51:05.964Z,3.45
2022-08-27T22:53:36.315Z,3.80
2022-08-27T22:56:06.243Z,3.72
2022-08-27T22:58:32.884Z,3.78
2022-08-27T23:00:59.974Z,3.63
2022-08-27T23:03:26.880Z,3.88
2022-08-27T23:05:53.831Z,3.53
2022-08-27T23:08:23.088Z,3.20
2022-08-27T23:10:50.222Z,3.60
2022-08-27T23:13:16.860Z,3.72
2022-08-27T23:15:43.608Z,3.45
2022-08-27T23:18:10.512Z,3.30
2022-08-27T23:20:37.276Z,3.97
2022-08-27T23:23:04.141Z,3.17
2022-08-27T23:25:49.222Z,3.85
2022-08-27T23:28:16.203Z,3.75
2022-08-27T23:30:44.746Z,3.83
2022-08-27T23:33:13.183Z,4.45
2022-08-27T23:35:41.348Z,3.15
2022-08-27T23:38:07.978Z,3.30
2022-08-27T23:40:34.681Z,3.47
2022-08-27T23:43:01.883Z,3.97
2022-08-27T23:45:28.543Z,3.50
2022-08-27T23:47:55.121Z,3.28
2022-08-27T23:50:26.366Z,3.42
2022-08-27T23:53:01.786Z,3.50
2022-08-27T23:55:28.869Z,3.40
2022-08-27T23:57:57.779Z,4.15
